Time;durP1;ratioP1;P1;durP2;ratioP2;P2;SDS_P1;SDS_P2;PMS_P1;PMS_P2;Temp;Humidity;BMP_temperature;BMP_pressure;BME280_temperature;BME280_humidity;BME280_pressure;Samples;Min_cycle;Max_cycle;Signal;HPM_P1;HPM_P2
2023/11/25 00:01:44;;;;;;;;;;;;;;;-0.25;100.00;99783.13;5038363;28;19933;-84
2023/11/25 00:04:12;;;;;;;;;;;;;;;-0.25;100.00;99778.63;5041936;28;19936;-85
2023/11/25 00:06:40;;;;;;;;;;;;;;;-0.26;100.00;99789.53;5023521;28;19925;-86
2023/11/25 00:09:08;;;;;;;;;;;;;;;-0.32;100.00;99783.25;5026830;28;19926;-84
2023/11/25 00:11:36;;;;;;;;;;;;;;;-0.32;100.00;99783.25;5024622;28;20793;-85
2023/11/25 00:14:09;;;;;;;;;;;;;;;-0.31;100.00;99792.09;5027237;28;19932;-85
2023/11/25 00:16:42;;;;;;;;;;;;;;;-0.31;100.00;99792.09;5028791;28;19932;-85
2023/11/25 00:19:16;;;;;;;;;;;;;;;-0.39;100.00;99786.03;5029057;28;19930;-85
2023/11/25 00:21:49;;;;;;;;;;;;;;;-0.33;100.00;99792.31;5024487;28;19925;-84
2023/11/25 00:24:17;;;;;;;;;;;;;;;-0.32;100.00;99791.25;5032792;28;19925;-85
2023/11/25 00:26:50;;;;;;;;;;;;;;;-0.31;100.00;99789.41;5039231;28;19925;-84
2023/11/25 00:29:23;;;;;;;;;;;;;;;-0.35;100.00;99784.53;5028842;28;19925;-85
2023/11/25 00:31:54;;;;;;;;;;;;;;;-0.39;100.00;99793.22;5022228;28;19932;-84
2023/11/25 00:34:25;;;;;;;;;;;;;;;-0.40;100.00;99792.44;5037686;28;19925;-85
2023/11/25 00:36:58;;;;;;;;;;;;;;;-0.50;100.00;99786.81;5033247;28;19925;-84
2023/11/25 00:39:27;;;;;;;;;;;;;;;-0.51;100.00;99779.84;5022283;28;20290;-84
2023/11/25 00:42:00;;;;;;;;;;;;;;;-0.58;100.00;99779.13;5022877;28;20286;-84
2023/11/25 00:44:27;;;;;;;;;;;;;;;-0.61;100.00;99785.72;5017895;28;20309;-85
2023/11/25 00:47:02;;;;;;;;;;;;;;;-0.66;100.00;99788.28;5033396;28;19926;-85
2023/11/25 00:49:36;;;;;;;;;;;;;;;-0.68;100.00;99785.00;5017498;28;20305;-84
2023/11/25 00:52:04;;;;;;;;;;;;;;;-0.73;100.00;99790.25;5026981;28;19925;-85
2023/11/25 00:54:37;;;;;;;;;;;;;;;-0.70;100.00;99797.81;5016346;28;19932;-84
2023/11/25 00:57:11;;;;;;;;;;;;;;;-0.63;100.00;99805.72;5019091;28;20298;-85
2023/11/25 00:59:38;;;;;;;;;;;;;;;-0.67;100.00;99802.69;5019123;28;19972;-84
2023/11/25 01:02:06;;;;;;;;;;;;;;;-0.67;100.00;99805.34;5022533;28;19925;-85
2023/11/25 01:04:42;;;;;;;;;;;;;;;-0.66;100.00;99806.16;5026118;28;20259;-84
2023/11/25 01:07:18;;;;;;;;;;;;;;;-0.65;100.00;99808.59;5026983;28;20488;-84
2023/11/25 01:09:46;;;;;;;;;;;;;;;-0.61;100.00;99811.66;5026952;28;19937;-84
2023/11/25 01:12:14;;;;;;;;;;;;;;;-0.64;100.00;99804.09;5018940;28;19933;-84
2023/11/25 01:14:42;;;;;;;;;;;;;;;-0.67;100.00;99816.03;5032709;28;19925;-85
2023/11/25 01:17:10;;;;;;;;;;;;;;;-0.64;100.00;99820.13;5024241;28;20377;-84
2023/11/25 01:19:44;;;;;;;;;;;;;;;-0.58;100.00;99817.38;5019137;28;19926;-84
2023/11/25 01:22:18;;;;;;;;;;;;;;;-0.66;100.00;99811.50;5031841;28;20399;-85
2023/11/25 01:24:47;;;;;;;;;;;;;;;-0.72;100.00;99823.91;5028306;28;20296;-85
2023/11/25 01:27:23;;;;;;;;;;;;;;;-0.77;100.00;99816.59;5022957;28;19936;-84
2023/11/25 01:29:51;;;;;;;;;;;;;;;-0.71;100.00;99821.00;5025457;28;19925;-84
2023/11/25 01:32:25;;;;;;;;;;;;;;;-0.77;100.00;99829.16;5034271;28;19925;-84
2023/11/25 01:34:55;;;;;;;;;;;;;;;-0.78;100.00;99825.63;5016427;28;19932;-83
2023/11/25 01:37:26;;;;;;;;;;;;;;;-0.80;100.00;99829.56;5038388;28;19925;-84
2023/11/25 01:39:59;;;;;;;;;;;;;;;-0.77;100.00;99831.81;5019494;28;19925;-84
2023/11/25 01:42:32;;;;;;;;;;;;;;;-0.79;100.00;99834.69;5023898;28;19925;-85
2023/11/25 01:45:00;;;;;;;;;;;;;;;-0.87;100.00;99833.16;5033904;28;19926;-84
2023/11/25 01:47:33;;;;;;;;;;;;;;;-0.86;100.00;99831.28;5026118;28;19929;-84
2023/11/25 01:50:10;;;;;;;;;;;;;;;-0.87;100.00;99835.84;5031425;28;20396;-83
2023/11/25 01:52:38;;;;;;;;;;;;;;;-0.86;100.00;99833.97;5022161;28;19933;-84
2023/11/25 01:55:08;;;;;;;;;;;;;;;-0.92;100.00;99824.19;5023291;28;19929;-85
2023/11/25 01:57:36;;;;;;;;;;;;;;;-0.88;100.00;99834.19;5029078;28;19936;-83
2023/11/25 02:00:07;;;;;;;;;;;;;;;-0.92;100.00;99827.66;5030778;28;19932;-83
2023/11/25 02:02:40;;;;;;;;;;;;;;;-0.96;100.00;99823.00;5032593;28;19925;-85
2023/11/25 02:05:14;;;;;;;;;;;;;;;-1.02;100.00;99832.75;5026297;28;19933;-85
2023/11/25 02:07:47;;;;;;;;;;;;;;;-1.07;100.00;99833.38;5029424;28;19929;-85
2023/11/25 02:10:20;;;;;;;;;;;;;;;-1.12;100.00;99835.94;5030868;28;19925;-84
2023/11/25 02:12:48;;;;;;;;;;;;;;;-1.15;100.00;99828.34;5028832;28;19929;-85
2023/11/25 02:15:16;;;;;;;;;;;;;;;-1.13;100.00;99826.28;5030470;28;19925;-85
2023/11/25 02:17:49;;;;;;;;;;;;;;;-1.13;100.00;99828.97;5025048;28;19925;-83
2023/11/25 02:20:31;;;;;;;;;;;;;;;-1.14;100.00;99824.66;5021600;28;19928;-85
2023/11/25 02:23:01;;;;;;;;;;;;;;;-1.18;100.00;99818.13;5034136;28;19925;-84
2023/11/25 02:25:29;;;;;;;;;;;;;;;-1.19;100.00;99821.81;5022999;28;19984;-83
2023/11/25 02:28:04;;;;;;;;;;;;;;;-1.25;100.00;99812.06;5022008;28;19925;-84
2023/11/25 02:30:37;;;;;;;;;;;;;;;-1.23;100.00;99807.28;5028261;28;19947;-83
2023/11/25 02:33:06;;;;;;;;;;;;;;;-1.23;100.00;99809.97;5014221;28;19929;-84
2023/11/25 02:35:34;;;;;;;;;;;;;;;-1.26;100.00;99805.88;5016440;28;19926;-83
2023/11/25 02:38:04;;;;;;;;;;;;;;;-1.31;100.00;99807.59;5022452;28;20373;-84
2023/11/25 02:40:33;;;;;;;;;;;;;;;-1.29;100.00;99808.19;5018235;28;19933;-85
2023/11/25 02:43:07;;;;;;;;;;;;;;;-1.28;100.00;99799.16;5027433;28;19929;-83
2023/11/25 02:45:35;;;;;;;;;;;;;;;-1.24;100.00;99803.03;5025327;28;19933;-83
2023/11/25 02:48:09;;;;;;;;;;;;;;;-1.24;100.00;99801.16;5025041;28;20310;-83
2023/11/25 02:50:37;;;;;;;;;;;;;;;-1.25;100.00;99796.03;5025498;28;19936;-83
2023/11/25 02:53:07;;;;;;;;;;;;;;;-1.31;100.00;99797.75;5028521;28;19925;-85
2023/11/25 02:55:37;;;;;;;;;;;;;;;-1.30;100.00;99798.56;5031494;28;19933;-83
2023/11/25 02:58:10;;;;;;;;;;;;;;;-1.27;100.00;99790.94;5028047;28;19925;-82
2023/11/25 03:00:43;;;;;;;;;;;;;;;-1.28;100.00;99791.97;5029932;28;19933;-84
2023/11/25 03:03:13;;;;;;;;;;;;;;;-1.34;100.00;99798.19;5031039;28;19925;-84
2023/11/25 03:05:52;;;;;;;;;;;;;;;-1.29;100.00;99784.97;5033994;28;19932;-84
2023/11/25 03:08:27;;;;;;;;;;;;;;;-1.32;100.00;99787.28;5033043;28;20294;-84
2023/11/25 03:10:55;;;;;;;;;;;;;;;-1.33;100.00;99783.78;5034382;28;19929;-84
2023/11/25 03:13:29;;;;;;;;;;;;;;;-1.37;100.00;99782.59;5031111;28;19937;-83
2023/11/25 03:16:05;;;;;;;;;;;;;;;-1.34;100.00;99792.03;5035913;28;19933;-83
2023/11/25 03:18:38;;;;;;;;;;;;;;;-1.37;100.00;99790.63;5023466;28;19933;-85
2023/11/25 03:21:11;;;;;;;;;;;;;;;-1.29;100.00;99792.19;5026384;28;19932;-85
2023/11/25 03:23:40;;;;;;;;;;;;;;;-1.28;100.00;99802.63;5018020;28;20401;-84
2023/11/25 03:26:13;;;;;;;;;;;;;;;-1.32;100.00;99798.78;5033652;28;19929;-86
2023/11/25 03:28:41;;;;;;;;;;;;;;;-1.25;100.00;99791.50;5031390;28;19933;-83
2023/11/25 03:31:14;;;;;;;;;;;;;;;-1.16;100.00;99788.53;5019082;28;19937;-84
2023/11/25 03:33:48;;;;;;;;;;;;;;;-1.11;100.00;99788.69;5024588;28;20032;-85
2023/11/25 03:36:22;;;;;;;;;;;;;;;-1.16;100.00;99777.84;5022069;28;20373;-87
2023/11/25 03:38:51;;;;;;;;;;;;;;;-1.12;100.00;99781.69;5039524;28;19929;-83
2023/11/25 03:41:19;;;;;;;;;;;;;;;-1.04;100.00;99778.72;5028684;28;19940;-86
2023/11/25 03:43:47;;;;;;;;;;;;;;;-1.05;100.00;99763.72;5027531;28;19929;-85
2023/11/25 03:46:21;;;;;;;;;;;;;;;-1.10;100.00;99756.41;5038690;28;19926;-84
2023/11/25 03:48:55;;;;;;;;;;;;;;;-1.12;100.00;99761.19;5018274;28;20386;-84
2023/11/25 03:51:29;;;;;;;;;;;;;;;-1.20;100.00;99764.97;5028450;28;19925;-84
2023/11/25 03:54:03;;;;;;;;;;;;;;;-1.16;100.00;99762.66;5027088;28;19925;-84
2023/11/25 03:56:36;;;;;;;;;;;;;;;-1.17;100.00;99758.34;5020599;28;19926;-83
2023/11/25 03:59:04;;;;;;;;;;;;;;;-1.17;100.00;99749.50;5033677;28;19929;-84
2023/11/25 04:01:32;;;;;;;;;;;;;;;-1.25;100.00;99740.78;5026006;28;19933;-84
2023/11/25 04:04:01;;;;;;;;;;;;;;;-1.30;100.00;99740.63;5019653;28;20397;-83
2023/11/25 04:06:34;;;;;;;;;;;;;;;-1.28;100.00;99741.25;5023680;28;19925;-83
2023/11/25 04:09:09;;;;;;;;;;;;;;;-1.20;100.00;99748.94;5025424;28;19929;-85
2023/11/25 04:11:43;;;;;;;;;;;;;;;-1.22;100.00;99742.19;5022658;28;19930;-83
2023/11/25 04:14:16;;;;;;;;;;;;;;;-1.24;100.00;99745.09;5023899;28;19941;-85
2023/11/25 04:16:44;;;;;;;;;;;;;;;-1.21;100.00;99741.97;5015972;28;19944;-85
2023/11/25 04:19:12;;;;;;;;;;;;;;;-1.20;100.00;99742.78;5017538;28;19925;-86
2023/11/25 04:21:47;;;;;;;;;;;;;;;-1.22;100.00;99740.31;5026568;28;19925;-83
2023/11/25 04:24:17;;;;;;;;;;;;;;;-1.22;100.00;99737.66;5025866;28;19932;-82
2023/11/25 04:26:47;;;;;;;;;;;;;;;-1.17;100.00;99738.84;5027805;28;19926;-83
2023/11/25 04:29:20;;;;;;;;;;;;;;;-1.09;100.00;99743.88;5024020;28;19935;-84
2023/11/25 04:31:53;;;;;;;;;;;;;;;-0.97;100.00;99750.06;5017770;28;19926;-84
2023/11/25 04:34:26;;;;;;;;;;;;;;;-0.90;100.00;99755.31;5021945;28;19932;-83
2023/11/25 04:37:00;;;;;;;;;;;;;;;-0.89;100.00;99739.06;5038044;28;19932;-84
2023/11/25 04:39:34;;;;;;;;;;;;;;;-0.83;100.00;99728.53;5026069;28;19933;-83
2023/11/25 04:42:08;;;;;;;;;;;;;;;-0.76;100.00;99718.53;5026026;28;19932;-83
2023/11/25 04:44:36;;;;;;;;;;;;;;;-0.78;100.00;99712.63;5022708;28;19948;-83
2023/11/25 04:47:09;;;;;;;;;;;;;;;-0.69;100.00;99720.09;5025402;28;20285;-83
2023/11/25 04:49:37;;;;;;;;;;;;;;;-0.58;100.00;99713.13;5031669;28;20382;-84
2023/11/25 04:52:05;;;;;;;;;;;;;;;-0.50;100.00;99720.00;5030850;28;19947;-84
2023/11/25 04:54:35;;;;;;;;;;;;;;;-0.46;100.00;99709.66;5032293;28;19925;-83
2023/11/25 04:57:08;;;;;;;;;;;;;;;-0.53;100.00;99707.91;5030844;28;20477;-84
2023/11/25 04:59:37;;;;;;;;;;;;;;;-0.46;100.00;99702.44;5040408;28;19925;-84
2023/11/25 05:02:09;;;;;;;;;;;;;;;-0.47;100.00;99692.81;5025007;28;19925;-83
2023/11/25 05:04:37;;;;;;;;;;;;;;;-0.53;100.00;99697.22;5031871;28;19924;-84
2023/11/25 05:07:10;;;;;;;;;;;;;;;-0.40;100.00;99695.34;5029901;28;20369;-83
2023/11/25 05:09:46;;;;;;;;;;;;;;;-0.42;100.00;99690.25;5028828;28;19940;-84
2023/11/25 05:12:19;;;;;;;;;;;;;;;-0.39;100.00;99681.78;5027937;28;20377;-84
2023/11/25 05:14:52;;;;;;;;;;;;;;;-0.34;100.00;99670.38;5023753;28;20286;-83
2023/11/25 05:17:26;;;;;;;;;;;;;;;-0.33;100.00;99672.03;5027010;28;19929;-84
2023/11/25 05:19:54;;;;;;;;;;;;;;;-0.28;100.00;99673.97;5022469;28;19932;-84
2023/11/25 05:22:27;;;;;;;;;;;;;;;-0.22;100.00;99684.56;5018131;28;20325;-82
2023/11/25 05:24:57;;;;;;;;;;;;;;;-0.13;100.00;99681.53;5032354;28;19926;-84
2023/11/25 05:27:30;;;;;;;;;;;;;;;-0.12;100.00;99686.66;5014651;28;19925;-84
2023/11/25 05:29:57;;;;;;;;;;;;;;;-0.07;100.00;99670.72;5016698;28;19932;-84
2023/11/25 05:32:25;;;;;;;;;;;;;;;-0.09;100.00;99664.78;5024856;28;19926;-84
2023/11/25 05:34:53;;;;;;;;;;;;;;;-0.13;100.00;99668.16;5022986;28;19925;-82
2023/11/25 05:37:26;;;;;;;;;;;;;;;-0.08;100.00;99668.28;5020334;28;19933;-84
2023/11/25 05:40:02;;;;;;;;;;;;;;;-0.09;100.00;99666.66;5038152;28;20313;-85
2023/11/25 05:42:41;;;;;;;;;;;;;;;-0.02;100.00;99670.81;5028253;28;20400;-85
2023/11/25 05:45:10;;;;;;;;;;;;;;;-0.02;100.00;99678.03;5023770;28;19933;-86
2023/11/25 05:47:43;;;;;;;;;;;;;;;-0.03;100.00;99697.81;5001734;28;20592;-84
2023/11/25 05:50:11;;;;;;;;;;;;;;;-0.04;100.00;99697.00;5039299;28;20364;-86
2023/11/25 05:52:39;;;;;;;;;;;;;;;-0.03;100.00;99697.81;5015486;28;19932;-84
2023/11/25 05:55:09;;;;;;;;;;;;;;;-0.08;100.00;99705.72;5023533;28;19925;-84
2023/11/25 05:57:44;;;;;;;;;;;;;;;-0.11;100.00;99696.31;5026398;28;19930;-85
2023/11/25 06:00:17;;;;;;;;;;;;;;;-0.07;100.00;99702.00;5012903;28;19925;-85
2023/11/25 06:02:50;;;;;;;;;;;;;;;-0.12;100.00;99699.22;5015110;28;19929;-85
2023/11/25 06:05:23;;;;;;;;;;;;;;;-0.14;100.00;99696.75;5020687;28;19928;-84
2023/11/25 06:07:56;;;;;;;;;;;;;;;-0.18;100.00;99688.41;5017313;28;19949;-85
2023/11/25 06:10:25;;;;;;;;;;;;;;;-0.13;100.00;99673.53;5022021;28;19929;-83
2023/11/25 06:12:53;;;;;;;;;;;;;;;-0.15;100.00;99675.59;5015695;28;19933;-83
2023/11/25 06:15:22;;;;;;;;;;;;;;;-0.15;100.00;99678.28;5017349;28;20708;-82
2023/11/25 06:17:55;;;;;;;;;;;;;;;-0.13;100.00;99681.53;5022952;28;20300;-83
2023/11/25 06:20:24;;;;;;;;;;;;;;;-0.10;100.00;99676.53;5022701;28;19932;-84
2023/11/25 06:22:53;;;;;;;;;;;;;;;-0.17;100.00;99686.53;5023426;28;20637;-85
2023/11/25 06:25:27;;;;;;;;;;;;;;;-0.18;100.00;99676.88;5025405;28;19933;-83
2023/11/25 06:27:55;;;;;;;;;;;;;;;-0.13;100.00;99671.66;5019089;28;19951;-80
2023/11/25 06:30:28;;;;;;;;;;;;;;;-0.24;100.00;99677.81;5032063;28;19925;-81
2023/11/25 06:32:56;;;;;;;;;;;;;;;-0.20;100.00;99670.97;5029193;28;19926;-81
2023/11/25 06:35:29;;;;;;;;;;;;;;;-0.14;100.00;99669.22;5030209;28;19925;-82
2023/11/25 06:37:58;;;;;;;;;;;;;;;-0.20;100.00;99671.75;5028673;28;19925;-84
2023/11/25 06:40:34;;;;;;;;;;;;;;;-0.15;100.00;99679.09;5020557;28;19926;-82
2023/11/25 06:43:02;;;;;;;;;;;;;;;-0.10;100.00;99675.72;5026490;28;19936;-81
2023/11/25 06:45:31;;;;;;;;;;;;;;;-0.05;100.00;99679.31;5029810;28;19925;-82
2023/11/25 06:48:04;;;;;;;;;;;;;;;-0.02;100.00;99678.84;5032414;28;19948;-80
2023/11/25 06:50:32;;;;;;;;;;;;;;;-0.01;100.00;99680.47;5028996;28;19936;-81
2023/11/25 06:52:59;;;;;;;;;;;;;;;-0.03;100.00;99677.22;5030644;28;19932;-81
2023/11/25 06:55:26;;;;;;;;;;;;;;;0.01;100.00;99674.88;5044947;28;19932;-81
2023/11/25 06:58:01;;;;;;;;;;;;;;;-0.03;100.00;99679.91;5028807;28;19925;-81
2023/11/25 07:00:29;;;;;;;;;;;;;;;-0.04;100.00;99683.63;5029852;28;20317;-85
2023/11/25 07:02:57;;;;;;;;;;;;;;;0.01;100.00;99679.44;5039493;28;20396;-82
2023/11/25 07:05:30;;;;;;;;;;;;;;;0.01;100.00;99672.22;5029005;28;19960;-81
2023/11/25 07:08:03;;;;;;;;;;;;;;;-0.05;100.00;99665.94;5029074;28;19944;-82
2023/11/25 07:10:34;;;;;;;;;;;;;;;-0.04;100.00;99664.09;5028022;28;20297;-84
2023/11/25 07:13:08;;;;;;;;;;;;;;;0.02;100.00;99673.84;5042643;28;19925;-84
2023/11/25 07:15:36;;;;;;;;;;;;;;;0.07;100.00;99673.97;5025308;28;19925;-83
2023/11/25 07:18:06;;;;;;;;;;;;;;;0.07;100.00;99665.94;5035189;28;19926;-83
2023/11/25 07:20:35;;;;;;;;;;;;;;;0.10;100.00;99656.63;5021805;28;19948;-81
2023/11/25 07:23:09;;;;;;;;;;;;;;;0.11;100.00;99653.72;5024141;28;19925;-84
2023/11/25 07:25:37;;;;;;;;;;;;;;;0.14;100.00;99652.44;5037315;28;19933;-81
2023/11/25 07:28:11;;;;;;;;;;;;;;;0.11;100.00;99653.72;5025163;28;19925;-81
2023/11/25 07:30:41;;;;;;;;;;;;;;;0.15;100.00;99654.03;5040755;28;19948;-81
2023/11/25 07:33:14;;;;;;;;;;;;;;;0.13;100.00;99656.94;5026446;28;19932;-82
2023/11/25 07:35:42;;;;;;;;;;;;;;;0.15;100.00;99662.91;5019955;28;19934;-82
2023/11/25 07:38:10;;;;;;;;;;;;;;;0.18;100.00;99661.63;5025173;28;19926;-82
2023/11/25 07:40:38;;;;;;;;;;;;;;;0.22;100.00;99660.09;5028534;28;19932;-82
2023/11/25 07:43:06;;;;;;;;;;;;;;;0.30;100.00;99661.56;5022099;28;19937;-83
2023/11/25 07:45:35;;;;;;;;;;;;;;;0.31;100.00;99665.88;5031651;28;19936;-82
2023/11/25 07:48:08;;;;;;;;;;;;;;;0.32;100.00;99665.63;5027562;28;19933;-82
2023/11/25 07:50:45;;;;;;;;;;;;;;;0.30;100.00;99678.47;5030112;28;19925;-82
2023/11/25 07:53:22;;;;;;;;;;;;;;;0.31;100.00;99677.38;5028324;28;19926;-83
2023/11/25 07:55:55;;;;;;;;;;;;;;;0.33;100.00;99677.16;5026229;28;20468;-82
2023/11/25 07:58:24;;;;;;;;;;;;;;;0.39;100.00;99676.22;5038930;28;19937;-82
2023/11/25 08:00:59;;;;;;;;;;;;;;;0.36;100.00;99684.72;5026133;28;20270;-83
2023/11/25 08:03:27;;;;;;;;;;;;;;;0.40;100.00;99687.72;5021232;28;19925;-82
2023/11/25 08:06:00;;;;;;;;;;;;;;;0.43;100.00;99688.06;5032082;28;19932;-83
2023/11/25 08:08:33;;;;;;;;;;;;;;;0.54;100.00;99688.25;5023845;28;20389;-82
2023/11/25 08:11:06;;;;;;;;;;;;;;;0.71;100.00;99696.38;5030676;28;19925;-82
2023/11/25 08:13:34;;;;;;;;;;;;;;;0.76;100.00;99702.63;5029415;28;20373;-83
2023/11/25 08:16:06;;;;;;;;;;;;;;;0.81;100.00;99708.06;5031916;28;19932;-82
2023/11/25 08:18:39;;;;;;;;;;;;;;;0.88;100.00;99713.28;5021204;28;19925;-83
2023/11/25 08:21:08;;;;;;;;;;;;;;;0.90;100.00;99711.19;5024737;28;19926;-86
2023/11/25 08:23:41;;;;;;;;;;;;;;;0.81;100.00;99713.44;5028905;28;19929;-84
2023/11/25 08:26:20;;;;;;;;;;;;;;;0.91;100.00;99712.84;5027108;28;20305;-82
2023/11/25 08:28:50;;;;;;;;;;;;;;;0.94;100.00;99715.03;5023153;28;19948;-84
2023/11/25 08:31:24;;;;;;;;;;;;;;;1.04;100.00;99718.91;5025345;28;19960;-84
2023/11/25 08:34:02;;;;;;;;;;;;;;;1.07;100.00;99713.09;5025849;28;19932;-83
2023/11/25 08:36:30;;;;;;;;;;;;;;;1.11;100.00;99714.25;5036135;28;19926;-83
2023/11/25 08:39:03;;;;;;;;;;;;;;;1.09;100.00;99727.06;5029629;28;19933;-83
2023/11/25 08:41:31;;;;;;;;;;;;;;;1.06;100.00;99728.34;5025911;28;19925;-84
2023/11/25 08:44:06;;;;;;;;;;;;;;;1.17;100.00;99727.50;5026436;28;19929;-81
2023/11/25 08:46:38;;;;;;;;;;;;;;;1.29;100.00;99731.97;5034811;28;19929;-80
2023/11/25 08:49:11;;;;;;;;;;;;;;;1.22;100.00;99729.44;5030461;28;19944;-80
2023/11/25 08:51:40;;;;;;;;;;;;;;;1.33;100.00;99725.88;5031256;28;20706;-80
2023/11/25 08:54:09;;;;;;;;;;;;;;;1.29;100.00;99731.97;5025916;28;19925;-80
2023/11/25 08:56:45;;;;;;;;;;;;;;;1.26;100.00;99727.91;5022195;28;20302;-80
2023/11/25 08:59:17;;;;;;;;;;;;;;;1.28;100.00;99731.16;5027619;28;20305;-80
2023/11/25 09:01:47;;;;;;;;;;;;;;;1.28;100.00;99731.16;5030245;28;19925;-80
2023/11/25 09:04:19;;;;;;;;;;;;;;;1.31;100.00;99721.81;5027123;28;19933;-81
2023/11/25 09:06:47;;;;;;;;;;;;;;;1.39;100.00;99725.97;5029624;28;19926;-80
2023/11/25 09:09:15;;;;;;;;;;;;;;;1.47;100.00;99737.09;5043491;28;20393;-79
2023/11/25 09:11:43;;;;;;;;;;;;;;;1.47;100.00;99739.78;5021283;28;19925;-80
2023/11/25 09:14:11;;;;;;;;;;;;;;;1.48;100.00;99736.06;5016432;28;19925;-81
2023/11/25 09:16:39;;;;;;;;;;;;;;;1.47;100.00;99747.03;5029081;28;19932;-80
2023/11/25 09:19:13;;;;;;;;;;;;;;;1.51;100.00;99743.59;5017471;28;20746;-79
2023/11/25 09:21:43;;;;;;;;;;;;;;;1.58;100.00;99743.47;5018859;28;19929;-83
2023/11/25 09:24:11;;;;;;;;;;;;;;;1.64;100.00;99744.34;5024041;28;20402;-79
2023/11/25 09:26:39;;;;;;;;;;;;;;;1.70;100.00;99754.13;5026883;28;19925;-84
2023/11/25 09:29:12;;;;;;;;;;;;;;;1.66;100.00;99744.94;5030067;28;19929;-81
2023/11/25 09:31:42;;;;;;;;;;;;;;;1.60;100.00;99751.25;5027044;28;20388;-83
2023/11/25 09:34:12;;;;;;;;;;;;;;;1.64;100.00;99758.59;5024148;28;19925;-82
2023/11/25 09:36:46;;;;;;;;;;;;;;;1.69;100.00;99757.84;5026688;28;20383;-81
2023/11/25 09:39:14;;;;;;;;;;;;;;;1.66;100.00;99748.41;5029708;28;19936;-82
2023/11/25 09:41:48;;;;;;;;;;;;;;;1.58;100.00;99746.13;5025326;28;19933;-83
2023/11/25 09:44:16;;;;;;;;;;;;;;;1.61;100.00;99756.38;5020885;28;19929;-82
2023/11/25 09:46:49;;;;;;;;;;;;;;;1.68;100.00;99770.44;5038446;28;19926;-83
2023/11/25 09:49:22;;;;;;;;;;;;;;;1.75;100.00;99772.16;5028751;28;20614;-82
2023/11/25 09:51:52;;;;;;;;;;;;;;;1.76;100.00;99774.59;5021997;28;19926;-87
2023/11/25 09:54:21;;;;;;;;;;;;;;;1.84;100.00;99766.13;5024831;28;19929;-88
2023/11/25 09:56:55;;;;;;;;;;;;;;;1.87;100.00;99756.78;5016266;28;19925;-89
2023/11/25 09:59:29;;;;;;;;;;;;;;;1.84;100.00;99754.59;5019450;28;19933;-89
2023/11/25 10:01:57;;;;;;;;;;;;;;;1.80;100.00;99758.84;5036215;28;19947;-88
2023/11/25 10:04:27;;;;;;;;;;;;;;;1.82;100.00;99767.44;5021310;28;20286;-87
2023/11/25 10:06:56;;;;;;;;;;;;;;;1.89;100.00;99764.59;5023521;28;19931;-87
2023/11/25 10:09:25;;;;;;;;;;;;;;;1.97;100.00;99746.19;5032955;28;20378;-87
2023/11/25 10:11:56;;;;;;;;;;;;;;;2.04;100.00;99746.03;5018741;28;19925;-88
2023/11/25 10:14:29;;;;;;;;;;;;;;;2.03;100.00;99755.13;5031735;28;20040;-86
2023/11/25 10:17:15;;;;;;;;;;;;;;;2.04;100.00;99759.44;5024143;28;19929;-86
2023/11/25 10:19:43;;;;;;;;;;;;;;;2.18;100.00;99767.97;5025359;28;20080;-79
2023/11/25 10:22:12;;;;;;;;;;;;;;;2.21;100.00;99768.28;5026713;28;19925;-88
2023/11/25 10:24:44;;;;;;;;;;;;;;;2.34;100.00;99771.69;5039434;28;19926;-87
2023/11/25 10:27:12;;;;;;;;;;;;;;;2.46;100.00;99776.94;5017467;28;19937;-87
2023/11/25 10:29:47;;;;;;;;;;;;;;;2.61;100.00;99770.97;5023190;28;19925;-88
2023/11/25 10:32:15;;;;;;;;;;;;;;;2.53;100.00;99774.91;5025930;28;19925;-87
2023/11/25 10:34:50;;;;;;;;;;;;;;;2.67;100.00;99776.16;5026852;28;19951;-86
2023/11/25 10:37:25;;;;;;;;;;;;;;;2.58;100.00;99769.56;5024220;28;19926;-87
2023/11/25 10:39:53;;;;;;;;;;;;;;;2.54;100.00;99774.66;5026753;28;19933;-87
2023/11/25 10:42:21;;;;;;;;;;;;;;;2.63;100.00;99775.03;5021277;28;19925;-87
2023/11/25 10:44:51;;;;;;;;;;;;;;;2.59;100.00;99783.84;5028432;28;19932;-87
2023/11/25 10:47:31;;;;;;;;;;;;;;;2.61;100.00;99777.16;5021821;28;19932;-87
2023/11/25 10:50:04;;;;;;;;;;;;;;;2.56;100.00;99785.16;5028431;28;19929;-87
2023/11/25 10:52:40;;;;;;;;;;;;;;;2.50;100.00;99780.75;5025583;28;19952;-87
2023/11/25 10:55:15;;;;;;;;;;;;;;;2.50;100.00;99784.28;5021698;28;19929;-87
2023/11/25 10:57:45;;;;;;;;;;;;;;;2.46;100.00;99782.31;5024398;28;19936;-87
2023/11/25 11:00:13;;;;;;;;;;;;;;;2.45;100.00;99788.75;5034864;28;19933;-87
2023/11/25 11:02:44;;;;;;;;;;;;;;;2.45;100.00;99792.25;5021121;28;19926;-88
2023/11/25 11:05:14;;;;;;;;;;;;;;;2.52;100.00;99792.06;5016173;28;19955;-87
2023/11/25 11:07:46;;;;;;;;;;;;;;;2.58;100.00;99788.38;5029159;28;20366;-90
2023/11/25 11:10:15;;;;;;;;;;;;;;;2.63;100.00;99787.66;5032109;28;20390;-87
2023/11/25 11:12:44;;;;;;;;;;;;;;;2.61;100.00;99789.75;5030103;28;19925;-88
2023/11/25 11:15:15;;;;;;;;;;;;;;;2.66;100.00;99792.53;5029056;28;20374;-88
2023/11/25 11:17:54;;;;;;;;;;;;;;;2.62;100.00;99800.25;5027666;28;19929;-88
2023/11/25 11:20:29;;;;;;;;;;;;;;;2.71;100.00;99795.28;5030311;28;19929;-87
2023/11/25 11:22:59;;;;;;;;;;;;;;;2.72;100.00;99802.25;5027763;28;19939;-87
2023/11/25 11:25:32;;;;;;;;;;;;;;;2.71;100.00;99811.41;5028603;28;19929;-88
2023/11/25 11:28:06;;;;;;;;;;;;;;;2.78;100.00;99819.28;5032340;28;19925;-89
2023/11/25 11:30:41;;;;;;;;;;;;;;;2.97;100.00;99812.53;5038273;28;19925;-88
2023/11/25 11:33:15;;;;;;;;;;;;;;;2.91;100.00;99810.03;5025211;28;19926;-89
2023/11/25 11:35:43;;;;;;;;;;;;;;;3.01;100.00;99813.66;5027495;28;20738;-88
2023/11/25 11:38:24;;;;;;;;;;;;;;;3.10;100.00;99819.38;5027207;28;20373;-87
2023/11/25 11:40:53;;;;;;;;;;;;;;;3.26;100.00;99811.50;5022403;28;19925;-87
2023/11/25 11:43:21;;;;;;;;;;;;;;;3.32;100.00;99810.50;5025732;28;19929;-87
2023/11/25 11:45:50;;;;;;;;;;;;;;;3.25;100.00;99808.00;5023928;28;19926;-88
2023/11/25 11:48:18;;;;;;;;;;;;;;;3.27;100.00;99810.44;5029458;28;20075;-87
2023/11/25 11:50:50;;;;;;;;;;;;;;;3.27;100.00;99819.31;5029254;28;19925;-88
2023/11/25 11:53:19;;;;;;;;;;;;;;;3.19;100.00;99822.44;5029732;28;20301;-88
2023/11/25 11:55:52;;;;;;;;;;;;;;;3.20;100.00;99824.06;5038650;28;19971;-88
2023/11/25 11:58:20;;;;;;;;;;;;;;;3.23;100.00;99831.63;5025720;28;19940;-88
2023/11/25 12:00:49;;;;;;;;;;;;;;;3.31;100.00;99822.31;5038773;28;19936;-88
2023/11/25 12:03:22;;;;;;;;;;;;;;;3.30;100.00;99832.25;5024394;28;20313;-88
2023/11/25 12:05:55;;;;;;;;;;;;;;;3.32;100.00;99822.06;5028617;28;19933;-87
2023/11/25 12:08:23;;;;;;;;;;;;;;;3.42;100.00;99823.22;5028503;28;19929;-86
2023/11/25 12:10:58;;;;;;;;;;;;;;;3.50;100.00;99828.16;5028149;28;19933;-90
2023/11/25 12:13:26;;;;;;;;;;;;;;;3.64;100.00;99833.94;5027830;28;19933;-85
2023/11/25 12:15:59;;;;;;;;;;;;;;;3.56;100.00;99830.66;4983339;28;20833;-86
2023/11/25 12:18:33;;;;;;;;;;;;;;;3.62;100.00;99828.81;5021666;28;20270;-86
2023/11/25 12:21:02;;;;;;;;;;;;;;;3.46;100.00;99837.81;5015191;28;19933;-87
2023/11/25 12:23:35;;;;;;;;;;;;;;;3.47;100.00;99832.16;5010334;28;19933;-87
2023/11/25 12:26:10;;;;;;;;;;;;;;;3.55;100.00;99837.09;5009993;28;19975;-87
2023/11/25 12:28:41;;;;;;;;;;;;;;;3.63;100.00;99845.75;5012082;28;20465;-88
2023/11/25 12:31:09;;;;;;;;;;;;;;;3.72;100.00;99855.81;5011225;28;20562;-86
2023/11/25 12:33:42;;;;;;;;;;;;;;;3.75;100.00;99855.28;5016801;28;19931;-86
2023/11/25 12:36:11;;;;;;;;;;;;;;;3.93;100.00;99850.63;5011073;28;19933;-86
2023/11/25 12:38:39;;;;;;;;;;;;;;;3.97;100.00;99845.53;5011778;28;19933;-87
2023/11/25 12:41:12;;;;;;;;;;;;;;;4.08;100.00;99853.44;5009555;28;19933;-87
2023/11/25 12:43:54;;;;;;;;;;;;;;;4.06;100.00;99843.97;5014606;28;20405;-86
2023/11/25 12:46:22;;;;;;;;;;;;;;;3.92;100.00;99854.38;5009662;28;19933;-87
2023/11/25 12:48:57;;;;;;;;;;;;;;;3.84;100.00;99844.91;5011384;28;19933;-87
2023/11/25 12:51:42;;;;;;;;;;;;;;;3.69;100.00;99848.25;5010767;28;19933;-87
2023/11/25 12:54:11;;;;;;;;;;;;;;;3.65;100.00;99857.09;5008316;28;21283;-86
2023/11/25 12:56:49;;;;;;;;;;;;;;;3.62;100.00;99861.09;5007996;28;20290;-87
2023/11/25 12:59:20;;;;;;;;;;;;;;;3.60;100.00;99863.22;5005899;28;19933;-86
2023/11/25 13:01:48;;;;;;;;;;;;;;;3.25;100.00;99888.66;5015631;28;19933;-88